Portada
METAR-TAF:

METAR-TAF

Aeroports :

Córdoba, Argentina

latitud: 31-19S, longitud: 064-13W, altitud: 484 m

Observació

L'informe es va fer fa 1 hora i 7 minuts, a les 22:00 UTC
Vent 6 kt del Nord-Est
Temperatura 9°C
Humitat 23%
Pressió 1013 hPa
Visibilitat 10 km o més
sense núvols per sota de 1500 mi sense presència de cumulonimbus.

METAR: SACO 122200Z 05006KT CAVOK 09/M11 Q1013 NOSIG

Hora: 20:07 (23:07 UTC)

Pronòstic

L'informe es va fer fa 6 hores i 7 minuts, a les 17:00 UTC
Pronòstic vàlid del 12 a les 18 UTC al 13 a les 18 UTC
Vent 10 kt del Nord-Est
Visibilitat 10 km o més
sense núvols per sota de 1500 mi sense presència de cumulonimbus.
Evolucionant progressivament
l' 12 a les 21 UTC al 13 a les 00 UTC
Vent 5 kt del Nord/Nord-Oest

TAF: SACO 121700Z 1218/1318 05010KT CAVOK TX18/1318Z TN01/1310Z BECMG 1221/1300 34005KT

Observacions i pronòstics meteorològics de més de 4000 aeroports (METAR i TAF).

Les estacions disponibles són els punts grocs i vermells al mapa.

Posi el ratolí al punt desitjat per veure el nom de l'estació.

Feu clic per veure les observacions i els pronòstics meteorològics.

Per canviar el mapa: feu clic els botons verds amb una creu de color negre per apropar; al botó verd amb un guió per allunyar la imatge; o en les fletxes verdes per a mapes adjacents.


METAR-TAF: